sensor_id;sensor_type;location;lat;lon;timestamp;P1;durP1;ratioP1;P2;durP2;ratioP2
8476;SDS011;4275;42.854;23.222;2024-02-28T00:01:47;15.50;;;15.00;;
8476;SDS011;4275;42.854;23.222;2024-02-28T00:04:15;16.15;;;15.55;;
8476;SDS011;4275;42.854;23.222;2024-02-28T00:06:41;15.82;;;15.23;;
8476;SDS011;4275;42.854;23.222;2024-02-28T00:09:11;16.42;;;15.82;;
8476;SDS011;4275;42.854;23.222;2024-02-28T00:11:42;16.50;;;15.90;;
8476;SDS011;4275;42.854;23.222;2024-02-28T00:14:10;15.70;;;15.10;;
8476;SDS011;4275;42.854;23.222;2024-02-28T00:16:39;16.48;;;15.88;;
8476;SDS011;4275;42.854;23.222;2024-02-28T00:19:09;16.02;;;15.43;;
8476;SDS011;4275;42.854;23.222;2024-02-28T00:21:37;15.65;;;15.05;;
8476;SDS011;4275;42.854;23.222;2024-02-28T00:24:05;16.13;;;15.52;;
8476;SDS011;4275;42.854;23.222;2024-02-28T00:26:33;16.00;;;15.40;;
8476;SDS011;4275;42.854;23.222;2024-02-28T00:29:00;15.77;;;15.18;;
8476;SDS011;4275;42.854;23.222;2024-02-28T00:31:27;17.33;;;16.40;;
8476;SDS011;4275;42.854;23.222;2024-02-28T00:33:54;15.35;;;14.85;;
8476;SDS011;4275;42.854;23.222;2024-02-28T00:36:20;16.00;;;15.40;;
8476;SDS011;4275;42.854;23.222;2024-02-28T00:52:16;15.80;;;15.20;;
8476;SDS011;4275;42.854;23.222;2024-02-28T00:54:43;15.63;;;15.02;;
8476;SDS011;4275;42.854;23.222;2024-02-28T00:57:10;16.17;;;15.57;;
8476;SDS011;4275;42.854;23.222;2024-02-28T00:59:36;15.90;;;15.30;;
8476;SDS011;4275;42.854;23.222;2024-02-28T01:02:03;16.33;;;15.73;;
8476;SDS011;4275;42.854;23.222;2024-02-28T01:04:30;16.15;;;15.55;;
8476;SDS011;4275;42.854;23.222;2024-02-28T01:06:57;14.40;;;13.90;;
8476;SDS011;4275;42.854;23.222;2024-02-28T01:16:09;15.77;;;15.18;;
8476;SDS011;4275;42.854;23.222;2024-02-28T01:18:36;15.00;;;14.50;;
8476;SDS011;4275;42.854;23.222;2024-02-28T01:21:03;15.00;;;14.50;;
8476;SDS011;4275;42.854;23.222;2024-02-28T01:23:30;15.27;;;14.77;;
8476;SDS011;4275;42.854;23.222;2024-02-28T01:25:57;15.15;;;14.65;;
8476;SDS011;4275;42.854;23.222;2024-02-28T01:28:24;14.60;;;14.10;;
8476;SDS011;4275;42.854;23.222;2024-02-28T01:30:51;14.73;;;14.23;;
8476;SDS011;4275;42.854;23.222;2024-02-28T01:33:19;14.57;;;14.07;;
8476;SDS011;4275;42.854;23.222;2024-02-28T01:35:46;14.50;;;14.00;;
8476;SDS011;4275;42.854;23.222;2024-02-28T01:38:13;14.82;;;14.32;;
8476;SDS011;4275;42.854;23.222;2024-02-28T01:40:43;14.15;;;13.65;;
8476;SDS011;4275;42.854;23.222;2024-02-28T01:43:11;14.55;;;14.05;;
8476;SDS011;4275;42.854;23.222;2024-02-28T01:45:38;14.40;;;13.90;;
8476;SDS011;4275;42.854;23.222;2024-02-28T01:48:05;14.00;;;13.50;;
8476;SDS011;4275;42.854;23.222;2024-02-28T01:50:37;14.60;;;14.10;;
8476;SDS011;4275;42.854;23.222;2024-02-28T01:53:04;14.90;;;14.40;;
8476;SDS011;4275;42.854;23.222;2024-02-28T01:55:34;15.10;;;14.50;;
8476;SDS011;4275;42.854;23.222;2024-02-28T01:58:01;15.17;;;14.57;;
8476;SDS011;4275;42.854;23.222;2024-02-28T02:00:30;14.13;;;13.63;;
8476;SDS011;4275;42.854;23.222;2024-02-28T02:02:59;13.60;;;13.10;;
8476;SDS011;4275;42.854;23.222;2024-02-28T02:12:11;12.07;;;11.68;;
8476;SDS011;4275;42.854;23.222;2024-02-28T02:14:38;12.30;;;11.90;;
8476;SDS011;4275;42.854;23.222;2024-02-28T02:17:05;13.20;;;12.80;;
8476;SDS011;4275;42.854;23.222;2024-02-28T02:19:32;12.70;;;12.30;;
8476;SDS011;4275;42.854;23.222;2024-02-28T02:21:59;12.60;;;12.20;;
8476;SDS011;4275;42.854;23.222;2024-02-28T02:24:32;12.83;;;12.43;;
8476;SDS011;4275;42.854;23.222;2024-02-28T02:26:59;12.98;;;12.57;;
8476;SDS011;4275;42.854;23.222;2024-02-28T02:29:26;13.07;;;12.68;;
8476;SDS011;4275;42.854;23.222;2024-02-28T02:31:54;13.00;;;12.60;;
8476;SDS011;4275;42.854;23.222;2024-02-28T02:34:21;12.80;;;12.40;;
8476;SDS011;4275;42.854;23.222;2024-02-28T02:36:48;14.20;;;13.60;;
8476;SDS011;4275;42.854;23.222;2024-02-28T02:39:14;13.00;;;12.60;;
8476;SDS011;4275;42.854;23.222;2024-02-28T02:41:43;13.68;;;13.27;;
8476;SDS011;4275;42.854;23.222;2024-02-28T02:44:09;13.45;;;13.05;;
8476;SDS011;4275;42.854;23.222;2024-02-28T02:46:36;12.82;;;12.43;;
8476;SDS011;4275;42.854;23.222;2024-02-28T02:49:04;13.32;;;12.93;;
8476;SDS011;4275;42.854;23.222;2024-02-28T02:51:31;13.48;;;13.07;;
8476;SDS011;4275;42.854;23.222;2024-02-28T02:53:58;13.65;;;13.23;;
8476;SDS011;4275;42.854;23.222;2024-02-28T02:56:25;13.60;;;13.20;;
8476;SDS011;4275;42.854;23.222;2024-02-28T02:58:53;13.60;;;13.20;;
8476;SDS011;4275;42.854;23.222;2024-02-28T03:01:20;13.23;;;12.83;;
8476;SDS011;4275;42.854;23.222;2024-02-28T03:03:47;13.50;;;13.10;;
8476;SDS011;4275;42.854;23.222;2024-02-28T03:06:14;13.38;;;12.98;;
8476;SDS011;4275;42.854;23.222;2024-02-28T03:08:40;13.57;;;13.17;;
8476;SDS011;4275;42.854;23.222;2024-02-28T03:11:07;13.13;;;12.73;;
8476;SDS011;4275;42.854;23.222;2024-02-28T03:13:34;13.30;;;12.90;;
8476;SDS011;4275;42.854;23.222;2024-02-28T03:16:04;13.50;;;13.10;;
8476;SDS011;4275;42.854;23.222;2024-02-28T03:18:31;13.87;;;13.37;;
8476;SDS011;4275;42.854;23.222;2024-02-28T03:20:58;13.93;;;13.43;;
8476;SDS011;4275;42.854;23.222;2024-02-28T03:23:25;13.48;;;13.07;;
8476;SDS011;4275;42.854;23.222;2024-02-28T03:25:52;13.13;;;12.73;;
8476;SDS011;4275;42.854;23.222;2024-02-28T03:28:19;12.90;;;12.50;;
8476;SDS011;4275;42.854;23.222;2024-02-28T03:30:46;13.30;;;12.90;;
8476;SDS011;4275;42.854;23.222;2024-02-28T03:33:14;13.00;;;12.60;;
8476;SDS011;4275;42.854;23.222;2024-02-28T03:35:41;12.50;;;12.10;;
8476;SDS011;4275;42.854;23.222;2024-02-28T03:38:08;12.90;;;12.50;;
8476;SDS011;4275;42.854;23.222;2024-02-28T03:40:35;13.00;;;12.60;;
8476;SDS011;4275;42.854;23.222;2024-02-28T03:43:02;12.95;;;12.55;;
8476;SDS011;4275;42.854;23.222;2024-02-28T03:45:29;13.17;;;12.77;;
8476;SDS011;4275;42.854;23.222;2024-02-28T03:47:56;19.02;;;18.27;;
8476;SDS011;4275;42.854;23.222;2024-02-28T03:50:24;13.17;;;12.77;;
8476;SDS011;4275;42.854;23.222;2024-02-28T03:52:51;12.23;;;11.83;;
8476;SDS011;4275;42.854;23.222;2024-02-28T03:55:18;12.80;;;12.40;;
8476;SDS011;4275;42.854;23.222;2024-02-28T03:57:46;12.53;;;12.13;;
8476;SDS011;4275;42.854;23.222;2024-02-28T04:00:14;12.10;;;11.70;;
8476;SDS011;4275;42.854;23.222;2024-02-28T04:02:41;11.40;;;11.10;;
8476;SDS011;4275;42.854;23.222;2024-02-28T04:05:08;11.30;;;11.00;;
8476;SDS011;4275;42.854;23.222;2024-02-28T04:07:36;12.00;;;11.60;;
8476;SDS011;4275;42.854;23.222;2024-02-28T04:10:04;10.77;;;10.47;;
8476;SDS011;4275;42.854;23.222;2024-02-28T04:12:32;11.45;;;11.15;;
8476;SDS011;4275;42.854;23.222;2024-02-28T04:14:59;11.60;;;11.30;;
8476;SDS011;4275;42.854;23.222;2024-02-28T04:17:26;11.00;;;10.70;;
8476;SDS011;4275;42.854;23.222;2024-02-28T04:19:53;11.00;;;10.70;;
8476;SDS011;4275;42.854;23.222;2024-02-28T04:22:22;11.47;;;11.17;;
8476;SDS011;4275;42.854;23.222;2024-02-28T04:24:51;11.27;;;10.97;;
8476;SDS011;4275;42.854;23.222;2024-02-28T04:27:17;10.90;;;10.60;;
8476;SDS011;4275;42.854;23.222;2024-02-28T04:29:44;10.97;;;10.67;;
8476;SDS011;4275;42.854;23.222;2024-02-28T04:32:11;10.30;;;10.00;;
8476;SDS011;4275;42.854;23.222;2024-02-28T04:34:38;10.00;;;9.70;;
8476;SDS011;4275;42.854;23.222;2024-02-28T04:37:05;10.60;;;10.30;;
8476;SDS011;4275;42.854;23.222;2024-02-28T04:39:32;10.83;;;10.53;;
8476;SDS011;4275;42.854;23.222;2024-02-28T04:42:00;10.50;;;10.20;;
8476;SDS011;4275;42.854;23.222;2024-02-28T04:44:27;10.13;;;9.83;;
8476;SDS011;4275;42.854;23.222;2024-02-28T04:46:54;11.50;;;11.20;;
8476;SDS011;4275;42.854;23.222;2024-02-28T04:49:21;10.77;;;10.47;;
8476;SDS011;4275;42.854;23.222;2024-02-28T04:51:48;10.87;;;10.57;;
8476;SDS011;4275;42.854;23.222;2024-02-28T04:54:15;12.20;;;11.80;;
8476;SDS011;4275;42.854;23.222;2024-02-28T04:56:42;11.43;;;11.13;;
8476;SDS011;4275;42.854;23.222;2024-02-28T04:59:12;11.73;;;11.43;;
8476;SDS011;4275;42.854;23.222;2024-02-28T05:01:39;12.20;;;11.80;;
8476;SDS011;4275;42.854;23.222;2024-02-28T05:04:07;12.30;;;11.90;;
8476;SDS011;4275;42.854;23.222;2024-02-28T05:06:34;12.20;;;11.80;;
8476;SDS011;4275;42.854;23.222;2024-02-28T05:09:02;12.30;;;11.90;;
8476;SDS011;4275;42.854;23.222;2024-02-28T05:11:29;12.27;;;11.87;;
8476;SDS011;4275;42.854;23.222;2024-02-28T05:13:56;11.50;;;11.20;;
8476;SDS011;4275;42.854;23.222;2024-02-28T05:16:24;10.77;;;10.47;;
8476;SDS011;4275;42.854;23.222;2024-02-28T05:18:51;11.13;;;10.83;;
8476;SDS011;4275;42.854;23.222;2024-02-28T05:21:18;11.18;;;10.88;;
8476;SDS011;4275;42.854;23.222;2024-02-28T05:23:45;11.13;;;10.83;;
8476;SDS011;4275;42.854;23.222;2024-02-28T05:26:12;10.57;;;10.27;;
8476;SDS011;4275;42.854;23.222;2024-02-28T05:28:39;10.60;;;10.30;;
8476;SDS011;4275;42.854;23.222;2024-02-28T05:31:18;10.50;;;10.20;;
8476;SDS011;4275;42.854;23.222;2024-02-28T05:33:49;10.63;;;10.33;;
8476;SDS011;4275;42.854;23.222;2024-02-28T05:36:17;10.50;;;10.20;;
8476;SDS011;4275;42.854;23.222;2024-02-28T05:38:44;10.30;;;10.00;;
8476;SDS011;4275;42.854;23.222;2024-02-28T05:41:11;10.60;;;10.30;;
8476;SDS011;4275;42.854;23.222;2024-02-28T05:43:39;10.73;;;10.43;;
8476;SDS011;4275;42.854;23.222;2024-02-28T05:46:06;10.50;;;10.20;;
8476;SDS011;4275;42.854;23.222;2024-02-28T05:48:33;10.60;;;10.30;;
8476;SDS011;4275;42.854;23.222;2024-02-28T05:51:02;10.60;;;10.30;;
8476;SDS011;4275;42.854;23.222;2024-02-28T05:53:30;10.90;;;10.60;;
8476;SDS011;4275;42.854;23.222;2024-02-28T05:56:00;10.70;;;10.40;;
8476;SDS011;4275;42.854;23.222;2024-02-28T05:58:28;10.75;;;10.45;;
8476;SDS011;4275;42.854;23.222;2024-02-28T06:00:55;11.20;;;10.90;;
8476;SDS011;4275;42.854;23.222;2024-02-28T06:03:22;12.00;;;11.60;;
8476;SDS011;4275;42.854;23.222;2024-02-28T06:05:49;11.73;;;11.35;;
8476;SDS011;4275;42.854;23.222;2024-02-28T06:08:17;11.90;;;11.50;;
8476;SDS011;4275;42.854;23.222;2024-02-28T06:10:44;12.73;;;12.32;;
8476;SDS011;4275;42.854;23.222;2024-02-28T06:13:12;12.05;;;11.65;;
8476;SDS011;4275;42.854;23.222;2024-02-28T06:15:39;11.95;;;11.55;;
8476;SDS011;4275;42.854;23.222;2024-02-28T06:18:07;12.00;;;11.60;;
8476;SDS011;4275;42.854;23.222;2024-02-28T06:20:34;12.00;;;11.60;;
8476;SDS011;4275;42.854;23.222;2024-02-28T06:23:02;11.07;;;10.77;;
8476;SDS011;4275;42.854;23.222;2024-02-28T06:25:30;12.25;;;11.85;;
8476;SDS011;4275;42.854;23.222;2024-02-28T06:27:59;12.55;;;12.15;;
8476;SDS011;4275;42.854;23.222;2024-02-28T06:30:27;12.45;;;12.05;;
8476;SDS011;4275;42.854;23.222;2024-02-28T06:32:54;12.90;;;12.50;;
8476;SDS011;4275;42.854;23.222;2024-02-28T06:35:20;13.00;;;12.60;;
8476;SDS011;4275;42.854;23.222;2024-02-28T06:37:47;12.90;;;12.50;;
8476;SDS011;4275;42.854;23.222;2024-02-28T06:40:15;12.90;;;12.50;;
8476;SDS011;4275;42.854;23.222;2024-02-28T06:42:44;13.50;;;13.10;;
8476;SDS011;4275;42.854;23.222;2024-02-28T06:45:11;13.90;;;13.40;;
8476;SDS011;4275;42.854;23.222;2024-02-28T06:47:38;13.68;;;13.07;;
8476;SDS011;4275;42.854;23.222;2024-02-28T06:50:05;13.88;;;13.38;;
8476;SDS011;4275;42.854;23.222;2024-02-28T06:52:33;13.70;;;13.25;;
8476;SDS011;4275;42.854;23.222;2024-02-28T06:55:01;14.23;;;13.73;;
8476;SDS011;4275;42.854;23.222;2024-02-28T06:57:35;14.45;;;13.95;;
8476;SDS011;4275;42.854;23.222;2024-02-28T07:00:04;14.10;;;13.60;;
8476;SDS011;4275;42.854;23.222;2024-02-28T07:02:33;13.95;;;13.45;;
8476;SDS011;4275;42.854;23.222;2024-02-28T07:05:00;13.85;;;13.38;;
8476;SDS011;4275;42.854;23.222;2024-02-28T07:07:28;14.60;;;14.10;;
8476;SDS011;4275;42.854;23.222;2024-02-28T07:09:55;13.85;;;13.35;;
8476;SDS011;4275;42.854;23.222;2024-02-28T07:12:22;13.90;;;13.40;;
8476;SDS011;4275;42.854;23.222;2024-02-28T07:14:50;13.80;;;13.30;;
8476;SDS011;4275;42.854;23.222;2024-02-28T07:17:18;14.35;;;13.85;;
8476;SDS011;4275;42.854;23.222;2024-02-28T07:19:45;13.90;;;13.43;;
8476;SDS011;4275;42.854;23.222;2024-02-28T07:22:12;14.68;;;14.18;;
8476;SDS011;4275;42.854;23.222;2024-02-28T07:24:39;15.55;;;14.98;;
8476;SDS011;4275;42.854;23.222;2024-02-28T07:27:06;14.10;;;13.60;;
8476;SDS011;4275;42.854;23.222;2024-02-28T07:29:33;13.23;;;12.82;;
8476;SDS011;4275;42.854;23.222;2024-02-28T07:32:00;14.40;;;13.90;;
8476;SDS011;4275;42.854;23.222;2024-02-28T07:34:29;14.18;;;13.68;;
8476;SDS011;4275;42.854;23.222;2024-02-28T07:36:56;14.35;;;13.85;;
8476;SDS011;4275;42.854;23.222;2024-02-28T07:39:23;14.80;;;14.20;;
8476;SDS011;4275;42.854;23.222;2024-02-28T07:41:50;14.38;;;13.77;;
8476;SDS011;4275;42.854;23.222;2024-02-28T07:44:17;14.77;;;14.13;;
8476;SDS011;4275;42.854;23.222;2024-02-28T07:46:44;15.88;;;15.07;;
8476;SDS011;4275;42.854;23.222;2024-02-28T07:49:11;16.02;;;15.13;;
8476;SDS011;4275;42.854;23.222;2024-02-28T07:51:41;17.00;;;16.00;;
8476;SDS011;4275;42.854;23.222;2024-02-28T07:54:08;17.13;;;16.02;;
8476;SDS011;4275;42.854;23.222;2024-02-28T07:56:35;16.92;;;15.88;;
8476;SDS011;4275;42.854;23.222;2024-02-28T07:59:01;17.25;;;16.15;;
8476;SDS011;4275;42.854;23.222;2024-02-28T08:01:28;17.70;;;16.50;;
8476;SDS011;4275;42.854;23.222;2024-02-28T08:03:55;18.23;;;17.02;;
8476;SDS011;4275;42.854;23.222;2024-02-28T08:06:22;18.33;;;17.02;;
8476;SDS011;4275;42.854;23.222;2024-02-28T08:08:52;18.58;;;17.17;;
8476;SDS011;4275;42.854;23.222;2024-02-28T08:11:18;20.63;;;19.13;;
8476;SDS011;4275;42.854;23.222;2024-02-28T08:13:45;19.40;;;18.00;;
8476;SDS011;4275;42.854;23.222;2024-02-28T08:16:12;18.48;;;17.17;;
8476;SDS011;4275;42.854;23.222;2024-02-28T08:18:39;19.60;;;18.20;;
8476;SDS011;4275;42.854;23.222;2024-02-28T08:21:06;19.67;;;18.27;;
8476;SDS011;4275;42.854;23.222;2024-02-28T08:23:33;20.17;;;18.63;;
8476;SDS011;4275;42.854;23.222;2024-02-28T08:26:01;20.30;;;18.73;;
8476;SDS011;4275;42.854;23.222;2024-02-28T08:28:29;20.55;;;18.95;;
8476;SDS011;4275;42.854;23.222;2024-02-28T08:30:56;20.73;;;19.02;;
8476;SDS011;4275;42.854;23.222;2024-02-28T08:33:23;20.60;;;19.00;;
8476;SDS011;4275;42.854;23.222;2024-02-28T08:35:50;20.10;;;18.50;;
8476;SDS011;4275;42.854;23.222;2024-02-28T08:38:16;19.75;;;18.25;;
8476;SDS011;4275;42.854;23.222;2024-02-28T08:40:43;19.55;;;18.05;;
8476;SDS011;4275;42.854;23.222;2024-02-28T08:43:12;20.10;;;18.50;;
8476;SDS011;4275;42.854;23.222;2024-02-28T08:45:38;28.17;;;26.27;;
8476;SDS011;4275;42.854;23.222;2024-02-28T08:48:06;19.05;;;17.65;;
8476;SDS011;4275;42.854;23.222;2024-02-28T08:50:33;19.88;;;18.38;;
8476;SDS011;4275;42.854;23.222;2024-02-28T08:53:01;20.27;;;18.67;;
8476;SDS011;4275;42.854;23.222;2024-02-28T08:55:28;20.55;;;18.85;;
8476;SDS011;4275;42.854;23.222;2024-02-28T08:57:55;20.30;;;18.70;;
8476;SDS011;4275;42.854;23.222;2024-02-28T09:00:23;21.00;;;19.30;;
8476;SDS011;4275;42.854;23.222;2024-02-28T09:02:50;20.65;;;18.95;;
8476;SDS011;4275;42.854;23.222;2024-02-28T09:05:17;21.20;;;19.40;;
8476;SDS011;4275;42.854;23.222;2024-02-28T09:07:44;24.80;;;22.92;;
8476;SDS011;4275;42.854;23.222;2024-02-28T09:10:16;19.85;;;18.15;;
8476;SDS011;4275;42.854;23.222;2024-02-28T09:12:46;19.58;;;17.88;;
8476;SDS011;4275;42.854;23.222;2024-02-28T09:15:13;19.75;;;18.05;;
8476;SDS011;4275;42.854;23.222;2024-02-28T09:17:42;20.08;;;18.38;;
8476;SDS011;4275;42.854;23.222;2024-02-28T09:20:10;21.30;;;19.50;;
8476;SDS011;4275;42.854;23.222;2024-02-28T09:22:38;21.40;;;19.60;;
8476;SDS011;4275;42.854;23.222;2024-02-28T09:25:05;20.60;;;18.80;;
8476;SDS011;4275;42.854;23.222;2024-02-28T09:27:34;20.98;;;19.08;;
8476;SDS011;4275;42.854;23.222;2024-02-28T09:30:01;20.55;;;18.75;;
8476;SDS011;4275;42.854;23.222;2024-02-28T09:32:28;21.27;;;19.38;;
8476;SDS011;4275;42.854;23.222;2024-02-28T09:34:56;21.15;;;19.35;;
8476;SDS011;4275;42.854;23.222;2024-02-28T09:37:23;20.17;;;18.48;;
8476;SDS011;4275;42.854;23.222;2024-02-28T09:39:50;19.15;;;17.65;;
8476;SDS011;4275;42.854;23.222;2024-02-28T09:42:17;20.13;;;18.42;;
8476;SDS011;4275;42.854;23.222;2024-02-28T09:44:45;20.58;;;18.88;;
8476;SDS011;4275;42.854;23.222;2024-02-28T09:47:13;20.40;;;18.70;;
8476;SDS011;4275;42.854;23.222;2024-02-28T09:49:40;20.35;;;18.65;;
8476;SDS011;4275;42.854;23.222;2024-02-28T09:52:10;19.92;;;18.25;;
8476;SDS011;4275;42.854;23.222;2024-02-28T09:54:37;19.88;;;18.27;;
8476;SDS011;4275;42.854;23.222;2024-02-28T09:57:04;20.00;;;18.33;;
8476;SDS011;4275;42.854;23.222;2024-02-28T09:59:31;20.33;;;18.63;;
8476;SDS011;4275;42.854;23.222;2024-02-28T10:01:59;20.80;;;19.00;;
8476;SDS011;4275;42.854;23.222;2024-02-28T10:04:28;20.67;;;18.88;;
8476;SDS011;4275;42.854;23.222;2024-02-28T10:06:56;20.65;;;18.85;;
8476;SDS011;4275;42.854;23.222;2024-02-28T10:09:24;20.50;;;18.77;;
8476;SDS011;4275;42.854;23.222;2024-02-28T10:11:51;20.45;;;18.75;;
8476;SDS011;4275;42.854;23.222;2024-02-28T10:14:18;20.35;;;18.65;;
8476;SDS011;4275;42.854;23.222;2024-02-28T10:16:45;24.83;;;22.50;;
8476;SDS011;4275;42.854;23.222;2024-02-28T10:19:12;20.10;;;18.40;;
8476;SDS011;4275;42.854;23.222;2024-02-28T10:21:39;20.00;;;18.30;;
8476;SDS011;4275;42.854;23.222;2024-02-28T10:24:06;20.17;;;18.48;;
8476;SDS011;4275;42.854;23.222;2024-02-28T10:26:42;20.38;;;18.63;;
8476;SDS011;4275;42.854;23.222;2024-02-28T10:29:10;20.63;;;18.83;;
8476;SDS011;4275;42.854;23.222;2024-02-28T10:31:37;20.27;;;18.48;;
8476;SDS011;4275;42.854;23.222;2024-02-28T10:34:04;20.55;;;18.75;;
8476;SDS011;4275;42.854;23.222;2024-02-28T10:36:33;20.98;;;19.17;;
8476;SDS011;4275;42.854;23.222;2024-02-28T10:39:00;21.48;;;19.58;;
8476;SDS011;4275;42.854;23.222;2024-02-28T10:41:28;22.08;;;20.17;;
8476;SDS011;4275;42.854;23.222;2024-02-28T10:43:57;22.10;;;20.20;;
8476;SDS011;4275;42.854;23.222;2024-02-28T10:46:25;24.40;;;22.42;;
8476;SDS011;4275;42.854;23.222;2024-02-28T10:48:52;22.13;;;20.23;;
8476;SDS011;4275;42.854;23.222;2024-02-28T10:51:20;21.58;;;19.67;;
8476;SDS011;4275;42.854;23.222;2024-02-28T10:53:53;22.30;;;20.35;;
8476;SDS011;4275;42.854;23.222;2024-02-28T10:56:28;21.98;;;20.02;;
8476;SDS011;4275;42.854;23.222;2024-02-28T10:58:58;23.17;;;21.17;;
8476;SDS011;4275;42.854;23.222;2024-02-28T11:01:25;21.63;;;19.73;;
8476;SDS011;4275;42.854;23.222;2024-02-28T11:03:53;21.75;;;19.75;;
8476;SDS011;4275;42.854;23.222;2024-02-28T11:06:21;22.70;;;20.60;;
8476;SDS011;4275;42.854;23.222;2024-02-28T11:08:49;22.83;;;20.73;;
8476;SDS011;4275;42.854;23.222;2024-02-28T11:11:19;23.00;;;20.90;;
8476;SDS011;4275;42.854;23.222;2024-02-28T11:13:52;23.02;;;20.92;;
8476;SDS011;4275;42.854;23.222;2024-02-28T11:16:27;23.45;;;21.35;;
8476;SDS011;4275;42.854;23.222;2024-02-28T11:18:55;22.70;;;20.70;;
8476;SDS011;4275;42.854;23.222;2024-02-28T11:21:22;22.80;;;20.70;;
8476;SDS011;4275;42.854;23.222;2024-02-28T11:23:51;22.17;;;20.17;;
8476;SDS011;4275;42.854;23.222;2024-02-28T11:26:18;22.48;;;20.38;;
8476;SDS011;4275;42.854;23.222;2024-02-28T11:28:46;22.90;;;20.80;;
8476;SDS011;4275;42.854;23.222;2024-02-28T11:31:14;24.70;;;22.42;;
8476;SDS011;4275;42.854;23.222;2024-02-28T11:33:43;24.70;;;22.40;;
8476;SDS011;4275;42.854;23.222;2024-02-28T11:36:11;24.20;;;22.00;;
8476;SDS011;4275;42.854;23.222;2024-02-28T11:38:39;24.42;;;22.23;;
8476;SDS011;4275;42.854;23.222;2024-02-28T11:41:06;30.58;;;28.08;;
8476;SDS011;4275;42.854;23.222;2024-02-28T11:43:34;22.35;;;20.25;;
8476;SDS011;4275;42.854;23.222;2024-02-28T11:46:01;22.45;;;20.35;;
8476;SDS011;4275;42.854;23.222;2024-02-28T11:48:29;28.35;;;25.95;;
8476;SDS011;4275;42.854;23.222;2024-02-28T11:50:59;31.48;;;28.88;;
8476;SDS011;4275;42.854;23.222;2024-02-28T11:53:27;24.80;;;22.50;;
8476;SDS011;4275;42.854;23.222;2024-02-28T11:55:54;24.30;;;22.10;;
8476;SDS011;4275;42.854;23.222;2024-02-28T11:58:22;31.08;;;28.48;;
8476;SDS011;4275;42.854;23.222;2024-02-28T12:00:49;23.55;;;21.45;;
8476;SDS011;4275;42.854;23.222;2024-02-28T12:03:19;24.35;;;22.15;;
8476;SDS011;4275;42.854;23.222;2024-02-28T12:05:47;24.40;;;22.20;;
8476;SDS011;4275;42.854;23.222;2024-02-28T12:08:16;23.20;;;21.10;;
8476;SDS011;4275;42.854;23.222;2024-02-28T12:10:44;23.30;;;21.10;;
8476;SDS011;4275;42.854;23.222;2024-02-28T12:13:10;23.15;;;20.95;;
8476;SDS011;4275;42.854;23.222;2024-02-28T12:15:38;22.80;;;20.70;;
8476;SDS011;4275;42.854;23.222;2024-02-28T12:18:09;25.23;;;23.02;;
8476;SDS011;4275;42.854;23.222;2024-02-28T12:20:37;25.90;;;23.60;;
8476;SDS011;4275;42.854;23.222;2024-02-28T12:23:04;25.80;;;23.40;;
8476;SDS011;4275;42.854;23.222;2024-02-28T12:25:34;26.20;;;23.90;;
8476;SDS011;4275;42.854;23.222;2024-02-28T12:28:01;25.05;;;22.75;;
8476;SDS011;4275;42.854;23.222;2024-02-28T12:30:30;24.98;;;22.70;;
8476;SDS011;4275;42.854;23.222;2024-02-28T12:32:57;24.98;;;22.67;;
8476;SDS011;4275;42.854;23.222;2024-02-28T12:35:25;29.63;;;27.13;;
8476;SDS011;4275;42.854;23.222;2024-02-28T12:37:52;24.55;;;22.45;;
8476;SDS011;4275;42.854;23.222;2024-02-28T12:40:19;24.40;;;22.20;;
8476;SDS011;4275;42.854;23.222;2024-02-28T12:42:47;22.80;;;20.67;;
8476;SDS011;4275;42.854;23.222;2024-02-28T12:48:36;22.52;;;20.42;;
8476;SDS011;4275;42.854;23.222;2024-02-28T12:51:04;22.55;;;20.48;;
8476;SDS011;4275;42.854;23.222;2024-02-28T12:53:31;25.58;;;23.38;;
8476;SDS011;4275;42.854;23.222;2024-02-28T12:55:58;27.90;;;25.60;;
8476;SDS011;4275;42.854;23.222;2024-02-28T12:58:26;24.13;;;22.02;;
8476;SDS011;4275;42.854;23.222;2024-02-28T13:00:53;24.40;;;22.20;;
8476;SDS011;4275;42.854;23.222;2024-02-28T13:03:20;25.58;;;23.27;;
8476;SDS011;4275;42.854;23.222;2024-02-28T13:05:47;23.35;;;21.25;;
8476;SDS011;4275;42.854;23.222;2024-02-28T13:08:14;23.40;;;21.30;;
8476;SDS011;4275;42.854;23.222;2024-02-28T13:10:41;23.08;;;20.98;;
8476;SDS011;4275;42.854;23.222;2024-02-28T13:13:08;23.20;;;21.10;;
8476;SDS011;4275;42.854;23.222;2024-02-28T13:15:38;23.02;;;21.02;;
8476;SDS011;4275;42.854;23.222;2024-02-28T13:18:06;25.50;;;23.40;;
8476;SDS011;4275;42.854;23.222;2024-02-28T13:20:36;25.77;;;23.58;;
8476;SDS011;4275;42.854;23.222;2024-02-28T13:23:05;24.77;;;22.58;;
8476;SDS011;4275;42.854;23.222;2024-02-28T13:25:32;24.52;;;22.35;;
8476;SDS011;4275;42.854;23.222;2024-02-28T13:27:58;25.00;;;22.80;;
8476;SDS011;4275;42.854;23.222;2024-02-28T13:30:25;22.85;;;20.85;;
8476;SDS011;4275;42.854;23.222;2024-02-28T13:32:54;22.83;;;20.83;;
8476;SDS011;4275;42.854;23.222;2024-02-28T13:35:22;23.30;;;21.20;;
8476;SDS011;4275;42.854;23.222;2024-02-28T13:37:49;22.80;;;20.70;;
8476;SDS011;4275;42.854;23.222;2024-02-28T13:40:15;23.63;;;21.52;;
8476;SDS011;4275;42.854;23.222;2024-02-28T13:42:42;24.45;;;22.35;;
8476;SDS011;4275;42.854;23.222;2024-02-28T13:45:10;24.48;;;22.38;;
8476;SDS011;4275;42.854;23.222;2024-02-28T13:47:37;24.38;;;22.20;;
8476;SDS011;4275;42.854;23.222;2024-02-28T13:50:07;23.92;;;21.75;;
8476;SDS011;4275;42.854;23.222;2024-02-28T13:52:35;22.40;;;20.40;;
8476;SDS011;4275;42.854;23.222;2024-02-28T13:55:03;22.33;;;20.33;;
8476;SDS011;4275;42.854;23.222;2024-02-28T13:57:30;22.27;;;20.27;;
8476;SDS011;4275;42.854;23.222;2024-02-28T13:59:57;22.42;;;20.42;;
8476;SDS011;4275;42.854;23.222;2024-02-28T14:02:24;22.90;;;20.80;;
8476;SDS011;4275;42.854;23.222;2024-02-28T14:04:51;23.30;;;21.20;;
8476;SDS011;4275;42.854;23.222;2024-02-28T14:07:20;23.95;;;21.85;;
8476;SDS011;4275;42.854;23.222;2024-02-28T14:09:47;23.83;;;21.73;;
8476;SDS011;4275;42.854;23.222;2024-02-28T14:12:13;23.55;;;21.45;;
8476;SDS011;4275;42.854;23.222;2024-02-28T14:14:40;23.90;;;21.80;;
8476;SDS011;4275;42.854;23.222;2024-02-28T14:17:07;22.92;;;20.83;;
8476;SDS011;4275;42.854;23.222;2024-02-28T14:19:34;22.42;;;20.40;;
8476;SDS011;4275;42.854;23.222;2024-02-28T14:22:01;22.75;;;20.75;;
8476;SDS011;4275;42.854;23.222;2024-02-28T14:24:31;23.60;;;21.50;;
8476;SDS011;4275;42.854;23.222;2024-02-28T14:26:57;24.27;;;22.17;;
8476;SDS011;4275;42.854;23.222;2024-02-28T14:29:24;25.00;;;22.80;;
8476;SDS011;4275;42.854;23.222;2024-02-28T14:31:51;24.75;;;22.55;;
8476;SDS011;4275;42.854;23.222;2024-02-28T14:34:18;24.00;;;21.90;;
8476;SDS011;4275;42.854;23.222;2024-02-28T14:36:45;24.35;;;22.25;;
8476;SDS011;4275;42.854;23.222;2024-02-28T14:39:13;23.20;;;21.10;;
8476;SDS011;4275;42.854;23.222;2024-02-28T14:41:44;22.88;;;20.77;;
8476;SDS011;4275;42.854;23.222;2024-02-28T14:44:11;22.95;;;20.85;;
8476;SDS011;4275;42.854;23.222;2024-02-28T14:46:38;22.67;;;20.67;;
8476;SDS011;4275;42.854;23.222;2024-02-28T14:49:06;23.98;;;21.88;;
8476;SDS011;4275;42.854;23.222;2024-02-28T14:51:33;24.58;;;22.38;;
8476;SDS011;4275;42.854;23.222;2024-02-28T14:54:00;24.33;;;22.15;;
8476;SDS011;4275;42.854;23.222;2024-02-28T14:56:27;24.67;;;22.48;;
8476;SDS011;4275;42.854;23.222;2024-02-28T14:58:55;24.55;;;22.35;;
8476;SDS011;4275;42.854;23.222;2024-02-28T15:01:22;23.13;;;21.13;;
8476;SDS011;4275;42.854;23.222;2024-02-28T15:03:50;22.88;;;20.88;;
8476;SDS011;4275;42.854;23.222;2024-02-28T15:06:17;22.85;;;20.75;;
8476;SDS011;4275;42.854;23.222;2024-02-28T15:08:44;23.30;;;21.10;;